createdAt,value
2023-02-11T00:00:16.662Z,10.73
2023-02-11T00:02:46.123Z,10.18
2023-02-11T00:05:14.358Z,12.80
2023-02-11T00:07:40.905Z,11.23
2023-02-11T00:10:07.826Z,10.90
2023-02-11T00:12:35.732Z,11.00
2023-02-11T00:15:02.265Z,9.30
2023-02-11T00:17:28.807Z,11.05
2023-02-11T00:19:55.437Z,11.73
2023-02-11T00:22:21.988Z,11.00
2023-02-11T00:24:48.583Z,11.88
2023-02-11T00:27:15.187Z,11.02
2023-02-11T00:29:41.677Z,9.10
2023-02-11T00:32:08.225Z,11.07
2023-02-11T00:34:35.864Z,11.13
2023-02-11T00:37:03.124Z,10.88
2023-02-11T00:39:29.680Z,11.30
2023-02-11T00:41:56.431Z,11.35
2023-02-11T00:44:23.094Z,10.93
2023-02-11T00:46:49.635Z,10.48
2023-02-11T00:49:16.134Z,11.07
2023-02-11T00:51:42.690Z,11.57
2023-02-11T00:54:09.169Z,11.85
2023-02-11T00:56:35.941Z,12.02
2023-02-11T00:59:02.520Z,11.48
2023-02-11T01:01:29.113Z,11.52
2023-02-11T01:03:55.650Z,11.70
2023-02-11T01:06:22.149Z,10.23
2023-02-11T01:08:48.651Z,10.18
2023-02-11T01:11:20.639Z,10.82
2023-02-11T01:13:48.838Z,11.82
2023-02-11T01:16:16.185Z,10.38
2023-02-11T01:18:43.113Z,12.05
2023-02-11T01:21:10.071Z,11.05
2023-02-11T01:23:36.609Z,12.25
2023-02-11T01:26:03.207Z,10.90
2023-02-11T01:28:30.408Z,13.13
2023-02-11T01:30:57.370Z,11.35
2023-02-11T01:33:24.474Z,12.27
2023-02-11T01:35:51.782Z,10.52
2023-02-11T01:38:24.126Z,13.13
2023-02-11T01:40:53.706Z,12.85
2023-02-11T01:43:20.810Z,12.77
2023-02-11T01:45:47.306Z,10.27
2023-02-11T01:48:18.808Z,14.23
2023-02-11T01:50:48.094Z,12.48
2023-02-11T01:53:15.547Z,12.98
2023-02-11T01:55:42.170Z,11.70
2023-02-11T01:58:08.668Z,11.73
2023-02-11T02:00:38.734Z,12.63
2023-02-11T02:03:10.826Z,13.05
2023-02-11T02:05:43.404Z,11.82
2023-02-11T02:08:19.086Z,11.75
2023-02-11T02:10:48.430Z,12.10
2023-02-11T02:13:15.376Z,13.57
2023-02-11T02:15:54.444Z,11.35
2023-02-11T02:18:41.526Z,11.73
2023-02-11T02:21:22.019Z,13.40
2023-02-11T02:24:16.706Z,11.75
2023-02-11T02:27:27.379Z,12.95
2023-02-11T02:30:08.674Z,12.20
2023-02-11T02:32:44.242Z,11.63
2023-02-11T02:35:19.291Z,10.48
2023-02-11T02:37:48.880Z,10.95
2023-02-11T02:40:21.054Z,12.10
2023-02-11T02:42:49.345Z,12.43
2023-02-11T02:45:16.342Z,13.48
2023-02-11T02:47:42.823Z,13.25
2023-02-11T02:50:10.507Z,13.40
2023-02-11T02:52:53.494Z,14.07
2023-02-11T02:56:09.895Z,13.00
2023-02-11T02:58:52.700Z,10.30
2023-02-11T03:01:41.022Z,10.45
2023-02-11T03:04:22.714Z,12.57
2023-02-11T03:06:55.145Z,11.82
2023-02-11T03:09:51.137Z,11.10
2023-02-11T03:12:18.147Z,11.60
2023-02-11T03:14:45.600Z,11.90
2023-02-11T03:17:15.024Z,12.35
2023-02-11T03:19:45.899Z,11.23
2023-02-11T03:22:19.623Z,12.82
2023-02-11T03:24:46.635Z,10.63
2023-02-11T03:27:25.743Z,10.73
2023-02-11T03:30:07.666Z,11.43
2023-02-11T03:32:41.232Z,9.55
2023-02-11T03:35:15.346Z,11.95
2023-02-11T03:37:53.614Z,11.93
2023-02-11T03:40:34.347Z,11.93
2023-02-11T03:43:12.394Z,11.80
2023-02-11T03:45:39.549Z,11.75
2023-02-11T03:48:14.437Z,13.20
2023-02-11T03:50:42.025Z,11.60
2023-02-11T03:53:09.915Z,11.23
2023-02-11T03:55:40.105Z,11.93
2023-02-11T04:00:39.150Z,9.85
2023-02-11T04:03:06.043Z,10.38
2023-02-11T04:05:32.606Z,10.07
2023-02-11T04:07:59.153Z,12.23
2023-02-11T04:10:25.893Z,10.50
2023-02-11T04:12:52.616Z,10.95
2023-02-11T04:15:19.208Z,11.13
2023-02-11T04:17:45.728Z,9.52
2023-02-11T04:20:12.628Z,9.30
2023-02-11T04:22:39.629Z,11.13
2023-02-11T04:25:07.094Z,10.07
2023-02-11T04:27:33.832Z,9.23
2023-02-11T04:30:00.369Z,11.93
2023-02-11T04:32:26.911Z,12.00
2023-02-11T04:34:53.399Z,10.38
2023-02-11T04:37:20.030Z,13.25
2023-02-11T04:39:48.795Z,13.10
2023-02-11T04:42:15.439Z,12.88
2023-02-11T04:44:41.999Z,11.07
2023-02-11T04:47:08.557Z,12.73
2023-02-11T04:49:35.129Z,11.23
2023-02-11T04:52:01.652Z,13.73
2023-02-11T04:54:28.136Z,12.05
2023-02-11T04:56:54.670Z,13.82
2023-02-11T04:59:21.155Z,13.32
2023-02-11T05:01:47.685Z,12.77
2023-02-11T05:04:14.188Z,11.68
2023-02-11T05:06:40.740Z,12.15
2023-02-11T05:09:07.309Z,13.02
2023-02-11T05:11:34.088Z,12.85
2023-02-11T05:14:00.628Z,11.55
2023-02-11T05:16:27.333Z,12.52
2023-02-11T05:18:53.883Z,12.65
2023-02-11T05:21:20.431Z,14.00
2023-02-11T05:23:47.030Z,12.00
2023-02-11T05:26:14.262Z,12.52
2023-02-11T05:28:41.322Z,13.60
2023-02-11T05:31:08.347Z,10.95
2023-02-11T05:33:35.075Z,13.40
2023-02-11T05:36:03.726Z,10.45
2023-02-11T05:38:30.239Z,12.23
2023-02-11T05:40:57.007Z,11.93
2023-02-11T05:43:23.600Z,12.38
2023-02-11T05:45:50.651Z,12.55
2023-02-11T05:48:17.625Z,12.95
2023-02-11T05:50:44.533Z,12.82
2023-02-11T05:53:11.740Z,12.23
2023-02-11T05:55:38.452Z,12.77
2023-02-11T05:58:05.667Z,10.70
2023-02-11T06:00:32.224Z,10.50
2023-02-11T06:02:58.869Z,11.88
2023-02-11T06:05:26.117Z,13.45
2023-02-11T06:07:52.638Z,12.73
2023-02-11T06:10:19.246Z,12.35
2023-02-11T06:12:45.796Z,11.75
2023-02-11T06:15:12.657Z,12.20
2023-02-11T06:17:39.293Z,12.35
2023-02-11T06:20:07.748Z,11.93
2023-02-11T06:22:35.091Z,12.27
2023-02-11T06:25:02.474Z,12.32
2023-02-11T06:27:29.814Z,13.50
2023-02-11T06:29:58.549Z,13.40
2023-02-11T06:35:14.156Z,12.93
2023-02-11T06:37:41.922Z,10.30
2023-02-11T06:40:09.858Z,14.93
2023-02-11T06:42:36.422Z,11.18
2023-02-11T06:45:03.563Z,13.15
2023-02-11T06:47:30.072Z,13.00
2023-02-11T06:49:56.565Z,12.48
2023-02-11T06:52:23.037Z,13.95
2023-02-11T06:54:49.501Z,13.05
2023-02-11T06:57:16.154Z,12.30
2023-02-11T06:59:42.684Z,12.52
2023-02-11T07:02:10.430Z,14.00
2023-02-11T07:04:37.027Z,14.38
2023-02-11T07:07:03.591Z,15.27
2023-02-11T07:09:30.127Z,14.10
2023-02-11T07:11:56.637Z,15.55
2023-02-11T07:14:23.149Z,13.60
2023-02-11T07:16:49.712Z,14.35
2023-02-11T07:19:16.261Z,13.43
2023-02-11T07:21:43.002Z,13.23
2023-02-11T07:24:11.200Z,13.85
2023-02-11T07:26:38.072Z,12.48
2023-02-11T07:29:04.721Z,12.80
2023-02-11T07:31:32.002Z,14.20
2023-02-11T07:34:01.402Z,14.77
2023-02-11T07:36:29.817Z,13.77
2023-02-11T07:38:56.350Z,13.05
2023-02-11T07:41:24.840Z,13.10
2023-02-11T07:43:51.738Z,14.63
2023-02-11T07:46:21.714Z,12.75
2023-02-11T07:48:49.106Z,13.43
2023-02-11T07:51:18.301Z,13.02
2023-02-11T07:53:46.522Z,14.52
2023-02-11T07:56:15.421Z,13.63
2023-02-11T07:58:42.797Z,14.52
2023-02-11T08:01:15.455Z,14.63
2023-02-11T08:03:42.500Z,11.77
2023-02-11T08:06:12.101Z,14.25
2023-02-11T08:08:39.123Z,10.95
2023-02-11T08:11:11.076Z,10.90
2023-02-11T08:13:37.699Z,14.15
2023-02-11T08:16:05.318Z,13.02
2023-02-11T08:18:33.390Z,11.52
2023-02-11T08:21:07.568Z,13.30
2023-02-11T08:23:36.608Z,12.70
2023-02-11T08:26:10.233Z,12.23
2023-02-11T08:28:39.611Z,13.15
2023-02-11T08:31:11.857Z,10.15
2023-02-11T08:33:38.827Z,11.88
2023-02-11T08:36:17.144Z,12.82
2023-02-11T08:38:44.161Z,11.85
2023-02-11T08:41:11.162Z,11.40
2023-02-11T08:43:37.999Z,12.55
2023-02-11T08:46:05.297Z,11.27
2023-02-11T08:48:32.028Z,12.48
2023-02-11T08:50:58.827Z,12.55
2023-02-11T08:53:25.759Z,12.13
2023-02-11T08:55:54.482Z,12.27
2023-02-11T08:58:21.923Z,11.90
2023-02-11T09:00:49.950Z,12.18
2023-02-11T09:03:16.897Z,13.90
2023-02-11T09:05:48.329Z,13.45
2023-02-11T09:08:14.938Z,12.43
2023-02-11T09:10:41.474Z,15.20
2023-02-11T09:13:09.563Z,12.25
2023-02-11T09:15:36.253Z,11.43
2023-02-11T09:18:03.792Z,11.85
2023-02-11T09:20:30.713Z,11.82
2023-02-11T09:22:58.764Z,12.52
2023-02-11T09:25:25.994Z,12.23
2023-02-11T09:27:52.551Z,12.75
2023-02-11T09:30:19.280Z,13.35
2023-02-11T09:32:45.792Z,11.40
2023-02-11T09:35:12.300Z,12.07
2023-02-11T09:37:38.874Z,13.93
2023-02-11T09:40:06.046Z,13.32
2023-02-11T09:42:50.654Z,11.75
2023-02-11T09:45:28.853Z,12.15
2023-02-11T09:48:22.166Z,15.05
2023-02-11T09:50:57.015Z,13.13
2023-02-11T09:53:28.428Z,12.93
2023-02-11T09:55:57.525Z,12.85
2023-02-11T09:58:30.378Z,12.85
2023-02-11T10:01:08.522Z,11.63
2023-02-11T10:03:43.780Z,15.20
2023-02-11T10:06:42.690Z,12.85
2023-02-11T10:09:33.837Z,13.80
2023-02-11T10:12:31.173Z,13.88
2023-02-11T10:15:20.795Z,13.45
2023-02-11T10:18:04.943Z,12.98
2023-02-11T10:21:02.761Z,11.93
2023-02-11T10:23:34.073Z,12.93
2023-02-11T10:26:00.880Z,12.32
2023-02-11T10:28:33.902Z,14.07
2023-02-11T10:31:05.777Z,14.80
2023-02-11T10:33:46.027Z,14.57
2023-02-11T10:36:16.143Z,13.15
2023-02-11T10:38:43.278Z,15.93
2023-02-11T10:41:16.346Z,15.38
2023-02-11T10:43:43.000Z,13.95
2023-02-11T10:46:24.168Z,15.13
2023-02-11T10:48:52.773Z,13.38
2023-02-11T10:51:26.803Z,12.40
2023-02-11T10:54:05.495Z,15.10
2023-02-11T10:56:35.325Z,15.68
2023-02-11T10:59:04.435Z,17.08
2023-02-11T11:01:44.971Z,12.82
2023-02-11T11:04:29.877Z,13.43
2023-02-11T11:07:23.390Z,14.93
2023-02-11T11:09:51.783Z,14.77
2023-02-11T11:12:47.088Z,15.02
2023-02-11T11:15:18.167Z,13.82
2023-02-11T11:17:45.757Z,15.55
2023-02-11T11:20:20.200Z,14.48
2023-02-11T11:22:48.790Z,13.55
2023-02-11T11:25:27.929Z,14.30
2023-02-11T11:27:58.252Z,13.23
2023-02-11T11:30:34.156Z,15.48
2023-02-11T11:33:01.300Z,12.27
2023-02-11T11:35:29.844Z,14.40
2023-02-11T11:38:02.815Z,15.43
2023-02-11T11:40:31.978Z,15.48
2023-02-11T11:43:16.711Z,14.23
2023-02-11T11:45:55.681Z,9.75
2023-02-11T11:48:31.282Z,15.27
2023-02-11T11:51:01.849Z,13.45
2023-02-11T11:53:39.245Z,14.30
2023-02-11T11:56:09.012Z,15.85
2023-02-11T11:58:35.646Z,15.18
2023-02-11T12:01:18.343Z,15.52
2023-02-11T12:04:28.477Z,15.30
2023-02-11T12:07:01.001Z,15.57
2023-02-11T12:09:53.452Z,14.05
2023-02-11T12:12:51.435Z,16.05
2023-02-11T12:15:27.643Z,15.23
2023-02-11T12:18:03.963Z,15.07
2023-02-11T12:20:58.033Z,15.70
2023-02-11T12:23:38.762Z,14.82
2023-02-11T12:26:14.164Z,15.77
2023-02-11T12:29:02.501Z,13.90
2023-02-11T12:31:44.945Z,14.38
2023-02-11T12:34:52.408Z,14.70
2023-02-11T12:37:37.431Z,15.23
2023-02-11T12:40:37.745Z,15.40
2023-02-11T12:43:23.279Z,13.82
2023-02-11T12:46:08.433Z,15.10
2023-02-11T12:49:02.675Z,15.77
2023-02-11T12:51:37.243Z,17.17
2023-02-11T12:54:13.907Z,16.02
2023-02-11T12:56:56.674Z,15.73
2023-02-11T12:59:49.481Z,16.20
2023-02-11T13:02:25.272Z,15.00
2023-02-11T13:05:14.272Z,18.05
2023-02-11T13:07:46.138Z,16.70
2023-02-11T13:10:35.901Z,17.23
2023-02-11T13:13:11.178Z,14.85
2023-02-11T13:15:37.724Z,16.45
2023-02-11T13:18:18.778Z,16.90
2023-02-11T13:21:07.924Z,17.75
2023-02-11T13:23:46.436Z,15.90
2023-02-11T13:26:45.000Z,15.63
2023-02-11T13:29:36.424Z,16.30
2023-02-11T13:32:12.302Z,17.20
2023-02-11T13:34:41.653Z,17.88
2023-02-11T13:37:27.057Z,17.50
2023-02-11T13:40:06.626Z,18.33
2023-02-11T13:42:45.177Z,16.73
2023-02-11T13:45:29.726Z,17.85
2023-02-11T13:47:58.889Z,18.00
2023-02-11T13:50:26.700Z,17.60
2023-02-11T13:53:02.909Z,17.35
2023-02-11T13:55:30.423Z,17.38
2023-02-11T13:58:05.514Z,11.23
2023-02-11T14:00:31.985Z,17.70
2023-02-11T14:03:10.593Z,18.45
2023-02-11T14:05:37.219Z,17.70
2023-02-11T14:08:09.844Z,17.08
2023-02-11T14:10:42.261Z,15.15
2023-02-11T14:13:34.311Z,18.20
2023-02-11T14:16:09.716Z,16.98
2023-02-11T14:18:38.147Z,17.45
2023-02-11T14:21:27.726Z,18.25
2023-02-11T14:24:14.502Z,16.58
2023-02-11T14:26:49.110Z,16.27
2023-02-11T14:29:44.966Z,18.20
2023-02-11T14:32:30.458Z,15.68
2023-02-11T14:35:15.742Z,12.73
2023-02-11T14:38:10.388Z,15.73
2023-02-11T14:40:48.957Z,15.57
2023-02-11T14:43:29.366Z,14.82
2023-02-11T14:45:57.845Z,15.85
2023-02-11T14:48:30.768Z,17.13
2023-02-11T14:51:00.368Z,15.25
2023-02-11T14:53:29.880Z,16.75
2023-02-11T14:55:56.410Z,16.20
2023-02-11T14:58:25.577Z,15.05
2023-02-11T15:00:58.531Z,15.30
2023-02-11T15:03:47.881Z,14.85
2023-02-11T15:06:22.050Z,15.45
2023-02-11T15:08:53.297Z,14.73
2023-02-11T15:11:23.196Z,14.07
2023-02-11T15:13:50.334Z,15.77
2023-02-11T15:16:20.921Z,15.55
2023-02-11T15:18:51.490Z,15.25
2023-02-11T15:21:27.615Z,17.02
2023-02-11T15:24:05.974Z,15.15
2023-02-11T15:26:33.253Z,14.30
2023-02-11T15:29:00.263Z,16.05
2023-02-11T15:31:28.051Z,16.75
2023-02-11T15:33:55.434Z,17.63
2023-02-11T15:36:24.655Z,18.13
2023-02-11T15:39:28.568Z,22.13
2023-02-11T15:41:55.085Z,17.63
2023-02-11T15:44:32.244Z,17.95
2023-02-11T15:46:59.213Z,18.08
2023-02-11T15:49:26.233Z,17.52
2023-02-11T15:51:55.298Z,16.15
2023-02-11T15:54:26.048Z,18.63
2023-02-11T15:56:54.847Z,15.38
2023-02-11T15:59:24.183Z,16.55
2023-02-11T16:01:50.888Z,16.30
2023-02-11T16:04:20.922Z,16.83
2023-02-11T16:09:14.011Z,14.98
2023-02-11T16:11:46.664Z,15.23
2023-02-11T16:14:27.974Z,17.50
2023-02-11T16:16:58.702Z,17.08
2023-02-11T16:19:26.840Z,16.98
2023-02-11T16:21:55.678Z,17.05
2023-02-11T16:24:26.624Z,17.17
2023-02-11T16:26:58.950Z,15.88
2023-02-11T16:30:01.897Z,15.57
2023-02-11T16:32:34.755Z,16.50
2023-02-11T16:35:01.260Z,16.02
2023-02-11T16:37:28.745Z,15.98
2023-02-11T16:39:56.472Z,15.77
2023-02-11T16:42:22.988Z,16.27
2023-02-11T16:44:49.568Z,16.10
2023-02-11T16:47:27.906Z,16.17
2023-02-11T16:49:56.169Z,14.85
2023-02-11T16:52:23.108Z,15.65
2023-02-11T16:54:50.071Z,17.48
2023-02-11T16:57:17.836Z,17.45
2023-02-11T16:59:45.027Z,16.33
2023-02-11T17:02:28.112Z,18.42
2023-02-11T17:04:56.179Z,15.73
2023-02-11T17:07:22.715Z,16.05
2023-02-11T17:09:49.204Z,17.30
2023-02-11T17:12:15.735Z,16.55
2023-02-11T17:14:42.262Z,18.25
2023-02-11T17:17:10.289Z,17.92
2023-02-11T17:19:37.857Z,19.25
2023-02-11T17:22:04.484Z,18.05
2023-02-11T17:24:31.272Z,17.70
2023-02-11T17:26:58.036Z,17.27
2023-02-11T17:29:25.222Z,17.55
2023-02-11T17:31:52.678Z,16.70
2023-02-11T17:34:20.550Z,18.35
2023-02-11T17:36:47.063Z,17.20
2023-02-11T17:39:14.092Z,20.40
2023-02-11T17:41:40.761Z,17.75
2023-02-11T17:44:08.308Z,18.38
2023-02-11T17:46:35.924Z,16.50
2023-02-11T17:49:03.499Z,17.73
2023-02-11T17:51:36.566Z,15.40
2023-02-11T17:54:10.201Z,18.52
2023-02-11T17:56:37.106Z,18.92
2023-02-11T17:59:04.937Z,18.55
2023-02-11T18:01:33.612Z,17.58
2023-02-11T18:04:00.921Z,17.65
2023-02-11T18:06:27.694Z,17.35
2023-02-11T18:08:57.610Z,18.02
2023-02-11T18:11:24.443Z,20.77
2023-02-11T18:13:51.656Z,18.20
2023-02-11T18:16:24.164Z,18.65
2023-02-11T18:18:50.821Z,19.02
2023-02-11T18:21:20.722Z,17.50
2023-02-11T18:23:47.669Z,19.33
2023-02-11T18:26:15.695Z,17.67
2023-02-11T18:28:45.360Z,16.65
2023-02-11T18:31:13.621Z,19.88
2023-02-11T18:33:41.026Z,18.50
2023-02-11T18:36:13.220Z,19.40
2023-02-11T18:38:40.679Z,19.27
2023-02-11T18:41:07.721Z,19.48
2023-02-11T18:43:35.124Z,20.88
2023-02-11T18:46:05.961Z,19.67
2023-02-11T18:48:32.630Z,19.25
2023-02-11T18:50:59.126Z,19.13
2023-02-11T18:53:25.664Z,18.80
2023-02-11T18:55:53.802Z,19.70
2023-02-11T18:58:20.676Z,21.15
2023-02-11T19:00:48.342Z,19.05
2023-02-11T19:03:14.946Z,19.50
2023-02-11T19:05:49.594Z,18.65
2023-02-11T19:08:17.194Z,18.70
2023-02-11T19:10:46.610Z,18.48
2023-02-11T19:13:14.169Z,17.75
2023-02-11T19:15:45.138Z,19.45
2023-02-11T19:18:12.984Z,21.88
2023-02-11T19:20:41.432Z,18.67
2023-02-11T19:23:08.055Z,19.73
2023-02-11T19:25:34.669Z,19.20
2023-02-11T19:28:01.691Z,18.73
2023-02-11T19:30:28.341Z,19.55
2023-02-11T19:32:55.100Z,20.48
2023-02-11T19:35:21.959Z,21.95
2023-02-11T19:37:48.591Z,22.33
2023-02-11T19:40:15.440Z,21.05
2023-02-11T19:42:42.550Z,23.70
2023-02-11T19:45:09.861Z,24.33
2023-02-11T19:47:36.587Z,25.30
2023-02-11T19:50:04.995Z,21.60
2023-02-11T19:52:37.173Z,26.17
2023-02-11T19:55:04.275Z,20.58
2023-02-11T19:57:30.846Z,28.25
2023-02-11T19:59:57.530Z,22.77
2023-02-11T20:02:24.116Z,23.55
2023-02-11T20:04:50.658Z,23.90
2023-02-11T20:07:17.757Z,22.60
2023-02-11T20:09:44.441Z,19.90
2023-02-11T20:12:10.995Z,20.13
2023-02-11T20:14:50.986Z,20.98
2023-02-11T20:17:20.557Z,18.75
2023-02-11T20:19:47.104Z,19.13
2023-02-11T20:22:13.601Z,21.20
2023-02-11T20:24:40.470Z,20.33
2023-02-11T20:27:08.412Z,22.33
2023-02-11T20:29:35.113Z,22.05
2023-02-11T20:32:01.805Z,27.20
2023-02-11T20:34:28.599Z,22.83
2023-02-11T20:36:55.382Z,21.65
2023-02-11T20:39:23.863Z,19.75
2023-02-11T20:41:51.473Z,19.15
2023-02-11T20:44:18.092Z,20.27
2023-02-11T20:46:45.642Z,21.20
2023-02-11T20:49:18.634Z,20.13
2023-02-11T20:51:45.565Z,20.25
2023-02-11T20:54:14.089Z,20.35
2023-02-11T20:56:40.963Z,19.33
2023-02-11T20:59:11.166Z,20.15
2023-02-11T21:01:40.604Z,21.40
2023-02-11T21:04:18.496Z,18.85
2023-02-11T21:06:50.879Z,21.52
2023-02-11T21:09:23.473Z,19.42
2023-02-11T21:11:51.989Z,18.83
2023-02-11T21:14:20.311Z,20.52
2023-02-11T21:16:48.157Z,19.83
2023-02-11T21:19:15.038Z,19.38
2023-02-11T21:21:42.019Z,19.13
2023-02-11T21:24:10.432Z,20.25
2023-02-11T21:26:37.314Z,20.45
2023-02-11T21:29:08.656Z,19.50
2023-02-11T21:31:36.774Z,21.83
2023-02-11T21:34:03.966Z,18.45
2023-02-11T21:36:30.823Z,21.52
2023-02-11T21:38:57.826Z,23.58
2023-02-11T21:41:24.471Z,20.08
2023-02-11T21:43:51.858Z,20.02
2023-02-11T21:46:19.461Z,19.33
2023-02-11T21:48:46.926Z,21.48
2023-02-11T21:51:17.665Z,20.98
2023-02-11T21:53:44.394Z,20.92
2023-02-11T21:56:16.646Z,19.33
2023-02-11T21:58:43.997Z,21.35
2023-02-11T22:01:16.233Z,20.55
2023-02-11T22:03:43.461Z,20.08
2023-02-11T22:06:13.667Z,19.98
2023-02-11T22:08:40.859Z,20.23
2023-02-11T22:11:10.213Z,20.00
2023-02-11T22:13:37.201Z,21.70
2023-02-11T22:16:09.711Z,19.67
2023-02-11T22:18:37.028Z,20.27
2023-02-11T22:21:10.764Z,18.92
2023-02-11T22:23:38.057Z,20.08
2023-02-11T22:26:19.744Z,20.02
2023-02-11T22:28:46.700Z,20.17
2023-02-11T22:31:16.429Z,18.58
2023-02-11T22:33:43.607Z,19.33
2023-02-11T22:36:22.773Z,19.52
2023-02-11T22:38:49.905Z,19.45
2023-02-11T22:41:17.360Z,19.25
2023-02-11T22:43:44.520Z,19.38
2023-02-11T22:46:13.602Z,19.17
2023-02-11T22:48:40.523Z,18.88
2023-02-11T22:51:09.169Z,20.45
2023-02-11T22:53:36.102Z,20.75
2023-02-11T22:56:07.738Z,22.67
2023-02-11T22:58:36.026Z,20.88
2023-02-11T23:01:03.866Z,20.60
2023-02-11T23:03:30.540Z,20.63
2023-02-11T23:05:58.866Z,22.10
2023-02-11T23:08:28.829Z,20.25
2023-02-11T23:10:55.643Z,20.75
2023-02-11T23:13:22.203Z,21.95
2023-02-11T23:15:48.719Z,20.90
2023-02-11T23:18:15.269Z,21.30
2023-02-11T23:20:43.720Z,22.65
2023-02-11T23:23:12.539Z,20.38
2023-02-11T23:25:43.800Z,20.85
2023-02-11T23:28:11.485Z,20.17
2023-02-11T23:30:38.331Z,21.88
2023-02-11T23:33:04.859Z,21.58
2023-02-11T23:35:31.385Z,20.38
2023-02-11T23:37:57.864Z,21.88
2023-02-11T23:40:24.370Z,21.73
2023-02-11T23:42:51.470Z,19.85
2023-02-11T23:45:18.068Z,20.88
2023-02-11T23:47:44.584Z,20.98
2023-02-11T23:50:11.944Z,21.02
2023-02-11T23:52:38.483Z,18.98
2023-02-11T23:55:05.455Z,20.65
2023-02-11T23:57:32.881Z,19.35
2023-02-11T23:59:59.396Z,20.58
